Big Bear Station Historical Data
Daily Summary for March 6, 2019 Units:  English    Metric   Both
Next Day »
Daily Weekly Monthly Yearly Custom
  High: Low: Average:
Temperature: 43.2 °F 32.7 °F 36.6 °F
Dew Point: 41.3 °F 30.3 °F 35.3 °F
Humidity: 99% 90% 95%
Wind Speed: 15.0mph 0.0mph 5.1mph
Wind Gust: 27.4mph - -
Wind- - SSW
Pressure: 23.40 in 23.32 in -
Precipitation: 2.98 in    
Historical Graphs
 
 
Tabular Data for March 6, 2019
Time Temperature Dew Point Pressure Wind Wind Speed Wind Gust Humidity Rainfall Rate (Hourly)
00:01 42.3 °F 40.4 °F 23.38 in SE 5.3 mph -999.0 mph 93% 0.00 in
00:16 42.1 °F 40.2 °F 23.38 in WSW 4.2 mph -999.0 mph 93% 0.00 in
00:31 42.8 °F 40.9 °F 23.37 in NW 4.7 mph -999.0 mph 93% 0.00 in
00:46 43.0 °F 41.1 °F 23.37 in NW 3.7 mph -999.0 mph 93% 0.00 in
01:04 41.5 °F 39.9 °F 23.36 in SW 3.2 mph -999.0 mph 94% 0.00 in
01:20 41.4 °F 40.1 °F 23.37 in ESE 1.1 mph -999.0 mph 95% 0.00 in
01:35 41.7 °F 40.6 °F 23.36 in SSE 4.2 mph -999.0 mph 96% 0.00 in
01:50 41.9 °F 40.8 °F 23.36 in SSE 4.7 mph -999.0 mph 96% 0.00 in
02:05 42.4 °F 40.8 °F 23.35 in SSE 15.0 mph -999.0 mph 94% 0.00 in
02:21 43.2 °F 41.3 °F 23.35 in SSE 9.4 mph 27.4 mph 93% 0.00 in
02:36 42.1 °F 40.8 °F 23.34 in SSE 7.8 mph -999.0 mph 95% 0.00 in
02:51 42.3 °F 41.2 °F 23.34 in WNW 6.8 mph -999.0 mph 96% 0.00 in
03:06 41.9 °F 40.8 °F 23.33 in SSE 2.2 mph 23.8 mph 96% 0.00 in
03:22 41.5 °F 40.7 °F 23.33 in South 4.7 mph -999.0 mph 97% 0.00 in
03:37 41.0 °F 40.5 °F 23.34 in SSE 11.4 mph -999.0 mph 98% 0.00 in
03:52 40.1 °F 39.6 °F 23.33 in South 6.3 mph -999.0 mph 98% 0.00 in
04:07 39.9 °F 39.6 °F 23.33 in WSW 3.2 mph -999.0 mph 99% 0.00 in
04:23 39.9 °F 39.6 °F 23.32 in SE 4.2 mph -999.0 mph 99% 0.00 in
04:38 40.1 °F 39.8 °F 23.33 in SSE 13.0 mph 22.7 mph 99% 0.00 in
04:53 38.8 °F 38.5 °F 23.32 in SSE 6.3 mph -999.0 mph 99% 0.00 in
05:10 38.1 °F 37.6 °F 23.32 in ENE 6.8 mph -999.0 mph 98% 0.00 in
05:25 38.3 °F 38.0 °F 23.32 in WNW 7.3 mph -999.0 mph 99% 0.00 in
05:41 38.5 °F 38.0 °F 23.32 in SSW 13.0 mph -999.0 mph 98% 0.00 in
05:56 38.1 °F 37.3 °F 23.34 in WNW 3.2 mph -999.0 mph 97% 0.00 in
06:11 36.9 °F 35.1 °F 23.34 in WSW 4.2 mph 21.7 mph 93% 0.00 in
06:27 35.6 °F 33.5 °F 23.35 in South 11.4 mph 25.3 mph 92% 0.00 in
06:42 34.3 °F 32.2 °F 23.36 in South 4.7 mph -999.0 mph 92% 0.00 in
06:57 34.7 °F 33.2 °F 23.35 in SE 4.7 mph -999.0 mph 94% 0.00 in
07:13 33.6 °F 32.3 °F 23.35 in WSW 3.2 mph -999.0 mph 95% 0.00 in
07:29 32.9 °F 31.6 °F 23.38 in ENE 4.2 mph -999.0 mph 95% 0.00 in
07:44 32.7 °F 30.4 °F 23.38 in South 6.8 mph -999.0 mph 91% 0.00 in
07:59 32.9 °F 30.8 °F 23.38 in SSW 11.9 mph -999.0 mph 92% 0.00 in
08:15 32.9 °F 30.3 °F 23.37 in SSW 9.4 mph -999.0 mph 90% 0.00 in
08:30 32.7 °F 30.6 °F 23.37 in South 5.8 mph -999.0 mph 92% 0.00 in
08:46 33.8 °F 32.5 °F 23.37 in WNW 6.3 mph -999.0 mph 95% 0.00 in
09:01 33.8 °F 32.5 °F 23.37 in South 3.7 mph -999.0 mph 95% 0.00 in
09:16 33.3 °F 32.0 °F 23.37 in South 3.2 mph -999.0 mph 95% 0.00 in
09:32 33.3 °F 32.0 °F 23.37 in SSE 3.2 mph -999.0 mph 95% 0.00 in
09:47 33.1 °F 31.8 °F 23.38 in Calm   -999.0 mph 95% 0.00 in
10:02 33.4 °F 31.9 °F 23.38 in NNW 1.1 mph -999.0 mph 94% 0.00 in
10:17 33.6 °F 32.1 °F 23.39 in SSW 2.2 mph -999.0 mph 94% 0.00 in
10:32 33.6 °F 32.1 °F 23.40 in SSW 1.7 mph -999.0 mph 94% 0.00 in
10:48 33.4 °F 31.9 °F 23.40 in SW 2.7 mph -999.0 mph 94% 0.00 in
11:03 34.2 °F 32.7 °F 23.38 in South 5.8 mph -999.0 mph 94% 0.00 in
11:18 34.3 °F 32.8 °F 23.39 in Calm   -999.0 mph 94% 0.00 in
11:33 34.9 °F 33.3 °F 23.38 in Calm   -999.0 mph 94% 0.00 in
11:48 35.6 °F 34.0 °F 23.38 in SSE 3.2 mph -999.0 mph 94% 0.00 in
12:04 35.6 °F 34.6 °F 23.38 in SSE 3.7 mph -999.0 mph 96% 0.00 in
12:19 36.0 °F 34.7 °F 23.38 in South 5.8 mph -999.0 mph 95% 0.00 in
12:34 36.0 °F 34.7 °F 23.37 in SSE 6.3 mph -999.0 mph 95% 0.00 in
12:49 36.7 °F 35.1 °F 23.37 in SSW 3.7 mph -999.0 mph 94% 0.00 in
13:04 36.0 °F 34.7 °F 23.37 in SW 3.7 mph -999.0 mph 95% 0.00 in
13:20 36.3 °F 34.7 °F 23.37 in ENE 6.3 mph -999.0 mph 94% 0.00 in
13:35 36.9 °F 35.3 °F 23.36 in WSW 3.2 mph -999.0 mph 94% 0.00 in
13:50 36.0 °F 34.7 °F 23.36 in SSE 3.7 mph -999.0 mph 95% 0.00 in
14:06 35.6 °F 34.8 °F 23.36 in SSW 8.9 mph -999.0 mph 97% 0.00 in
14:21 36.0 °F 35.2 °F 23.36 in Calm   -999.0 mph 97% 0.00 in
14:37 36.5 °F 35.7 °F 23.36 in SSW 7.8 mph -999.0 mph 97% 0.00 in
14:52 36.3 °F 35.5 °F 23.36 in South 5.3 mph -999.0 mph 97% 0.00 in
15:07 36.7 °F 35.9 °F 23.36 in SSE 4.2 mph -999.0 mph 97% 0.00 in
15:23 37.0 °F 35.7 °F 23.36 in SSE 4.7 mph -999.0 mph 95% 0.00 in
15:38 37.0 °F 35.7 °F 23.36 in SSW 5.3 mph -999.0 mph 95% 0.00 in
15:54 36.9 °F 35.6 °F 23.36 in West 3.7 mph -999.0 mph 95% 0.00 in
16:09 36.7 °F 35.1 °F 23.37 in South 2.7 mph -999.0 mph 94% 0.00 in
16:25 36.7 °F 35.1 °F 23.36 in South 5.8 mph -999.0 mph 94% 0.00 in
16:40 36.3 °F 34.5 °F 23.37 in SSW 7.3 mph -999.0 mph 93% 0.00 in
16:55 36.3 °F 34.7 °F 23.37 in SSE 5.3 mph -999.0 mph 94% 0.00 in
17:10 36.1 °F 35.1 °F 23.37 in SE 3.2 mph -999.0 mph 96% 0.00 in
17:25 36.1 °F 34.8 °F 23.37 in ESE 3.7 mph -999.0 mph 95% 0.00 in
17:41 35.8 °F 34.2 °F 23.37 in NW 4.2 mph -999.0 mph 94% 0.00 in
17:56 35.8 °F 34.5 °F 23.37 in South 3.7 mph -999.0 mph 95% 0.00 in
18:11 35.6 °F 34.3 °F 23.37 in South 6.8 mph -999.0 mph 95% 0.00 in
18:27 35.6 °F 34.6 °F 23.37 in South 4.2 mph -999.0 mph 96% 0.00 in
18:42 35.6 °F 34.6 °F 23.37 in SSE 8.9 mph -999.0 mph 96% 0.00 in
18:58 35.8 °F 34.8 °F 23.37 in SE 2.2 mph -999.0 mph 96% 0.00 in
19:13 35.8 °F 35.0 °F 23.37 in SSE 4.7 mph -999.0 mph 97% 0.00 in
19:28 35.8 °F 34.8 °F 23.38 in SSE 5.8 mph -999.0 mph 96% 0.00 in
19:44 35.2 °F 33.6 °F 23.38 in SSW 3.7 mph -999.0 mph 94% 0.00 in
19:59 35.2 °F 33.9 °F 23.38 in SSE 7.8 mph -999.0 mph 95% 0.00 in
20:15 35.1 °F 33.5 °F 23.38 in SSE 10.9 mph -999.0 mph 94% 0.00 in
20:30 34.7 °F 33.4 °F 23.39 in North 2.2 mph -999.0 mph 95% 0.00 in
20:45 34.5 °F 33.5 °F 23.40 in South 3.2 mph -999.0 mph 96% 0.00 in
21:00 34.5 °F 33.2 °F 23.40 in North 4.2 mph -999.0 mph 95% 0.00 in
21:16 34.5 °F 33.2 °F 23.40 in SSW 3.7 mph -999.0 mph 95% 0.00 in
21:31 34.7 °F 33.4 °F 23.40 in South 5.3 mph -999.0 mph 95% 0.00 in
21:46 34.7 °F 33.4 °F 23.40 in South 10.9 mph -999.0 mph 95% 0.00 in
22:01 34.7 °F 33.7 °F 23.40 in ESE 2.7 mph -999.0 mph 96% 0.00 in
22:16 34.7 °F 33.7 °F 23.40 in NNW 4.2 mph -999.0 mph 96% 0.00 in
22:32 34.7 °F 33.7 °F 23.40 in South 7.8 mph -999.0 mph 96% 0.00 in
22:47 34.3 °F 33.3 °F 23.40 in SSW 5.8 mph -999.0 mph 96% 0.00 in
23:02 34.3 °F 33.3 °F 23.40 in South 2.7 mph -999.0 mph 96% 0.00 in
23:18 34.3 °F 33.0 °F 23.40 in SE 6.8 mph -999.0 mph 95% 0.00 in
23:33 34.3 °F 32.5 °F 23.40 in SE 2.7 mph -999.0 mph 93% 0.00 in
23:49 34.2 °F 32.7 °F 23.39 in WSW 2.2 mph -999.0 mph 94% 0.00 in
Big Bear CA Weather